sensor_id;sensor_type;location;lat;lon;timestamp;P1;durP1;ratioP1;P2;durP2;ratioP2
22287;SDS011;11312;51.464;6.968;2023-05-10T00:00:43;2.25;;;1.40;;
22287;SDS011;11312;51.464;6.968;2023-05-10T00:03:09;2.33;;;1.40;;
22287;SDS011;11312;51.464;6.968;2023-05-10T00:05:34;3.10;;;1.67;;
22287;SDS011;11312;51.464;6.968;2023-05-10T00:08:00;3.67;;;1.77;;
22287;SDS011;11312;51.464;6.968;2023-05-10T00:10:26;3.92;;;2.17;;
22287;SDS011;11312;51.464;6.968;2023-05-10T00:12:51;4.38;;;2.03;;
22287;SDS011;11312;51.464;6.968;2023-05-10T00:15:17;2.72;;;1.58;;
22287;SDS011;11312;51.464;6.968;2023-05-10T00:17:42;2.45;;;1.40;;
22287;SDS011;11312;51.464;6.968;2023-05-10T00:20:08;2.13;;;1.30;;
22287;SDS011;11312;51.464;6.968;2023-05-10T00:22:35;4.07;;;1.85;;
22287;SDS011;11312;51.464;6.968;2023-05-10T00:25:01;3.40;;;1.67;;
22287;SDS011;11312;51.464;6.968;2023-05-10T00:27:26;3.60;;;1.80;;
22287;SDS011;11312;51.464;6.968;2023-05-10T00:29:52;4.40;;;1.88;;
22287;SDS011;11312;51.464;6.968;2023-05-10T00:32:17;3.95;;;1.90;;
22287;SDS011;11312;51.464;6.968;2023-05-10T00:34:43;3.17;;;1.83;;
22287;SDS011;11312;51.464;6.968;2023-05-10T00:37:08;4.50;;;1.83;;
22287;SDS011;11312;51.464;6.968;2023-05-10T00:39:34;2.75;;;1.52;;
22287;SDS011;11312;51.464;6.968;2023-05-10T00:42:00;2.97;;;1.45;;
22287;SDS011;11312;51.464;6.968;2023-05-10T00:44:25;5.85;;;2.15;;
22287;SDS011;11312;51.464;6.968;2023-05-10T00:46:51;4.22;;;2.08;;
22287;SDS011;11312;51.464;6.968;2023-05-10T00:49:17;3.00;;;1.58;;
22287;SDS011;11312;51.464;6.968;2023-05-10T00:51:44;3.28;;;1.63;;
22287;SDS011;11312;51.464;6.968;2023-05-10T00:54:14;3.05;;;1.70;;
22287;SDS011;11312;51.464;6.968;2023-05-10T00:56:40;14.48;;;1.80;;
22287;SDS011;11312;51.464;6.968;2023-05-10T00:59:06;2.38;;;1.30;;
22287;SDS011;11312;51.464;6.968;2023-05-10T01:01:33;1.98;;;1.58;;
22287;SDS011;11312;51.464;6.968;2023-05-10T01:04:00;3.53;;;1.70;;
22287;SDS011;11312;51.464;6.968;2023-05-10T01:06:26;3.78;;;2.08;;
22287;SDS011;11312;51.464;6.968;2023-05-10T01:08:52;3.22;;;1.63;;
22287;SDS011;11312;51.464;6.968;2023-05-10T01:11:18;3.78;;;1.75;;
22287;SDS011;11312;51.464;6.968;2023-05-10T01:13:53;1.70;;;1.20;;
22287;SDS011;11312;51.464;6.968;2023-05-10T01:16:21;2.67;;;1.40;;
22287;SDS011;11312;51.464;6.968;2023-05-10T01:18:48;2.70;;;1.55;;
22287;SDS011;11312;51.464;6.968;2023-05-10T01:35:30;3.47;;;1.58;;
22287;SDS011;11312;51.464;6.968;2023-05-10T01:38:13;3.15;;;1.52;;
22287;SDS011;11312;51.464;6.968;2023-05-10T01:43:55;4.72;;;2.08;;
22287;SDS011;11312;51.464;6.968;2023-05-10T01:46:31;3.05;;;1.45;;
22287;SDS011;11312;51.464;6.968;2023-05-10T01:49:01;3.13;;;1.55;;
22287;SDS011;11312;51.464;6.968;2023-05-10T01:51:31;4.38;;;1.83;;
22287;SDS011;11312;51.464;6.968;2023-05-10T01:54:06;5.75;;;2.08;;
22287;SDS011;11312;51.464;6.968;2023-05-10T01:56:34;4.40;;;2.13;;
22287;SDS011;11312;51.464;6.968;2023-05-10T01:59:03;4.70;;;2.03;;
22287;SDS011;11312;51.464;6.968;2023-05-10T02:01:33;3.22;;;1.67;;
22287;SDS011;11312;51.464;6.968;2023-05-10T02:04:02;4.00;;;1.95;;
22287;SDS011;11312;51.464;6.968;2023-05-10T02:06:29;3.25;;;1.70;;
22287;SDS011;11312;51.464;6.968;2023-05-10T02:08:57;3.67;;;1.85;;
22287;SDS011;11312;51.464;6.968;2023-05-10T02:11:23;2.25;;;1.45;;
22287;SDS011;11312;51.464;6.968;2023-05-10T02:13:50;4.57;;;2.05;;
22287;SDS011;11312;51.464;6.968;2023-05-10T02:16:18;4.25;;;1.95;;
22287;SDS011;11312;51.464;6.968;2023-05-10T02:18:49;4.18;;;1.88;;
22287;SDS011;11312;51.464;6.968;2023-05-10T02:21:16;6.47;;;2.83;;
22287;SDS011;11312;51.464;6.968;2023-05-10T02:23:43;4.22;;;1.65;;
22287;SDS011;11312;51.464;6.968;2023-05-10T02:26:10;6.57;;;2.95;;
22287;SDS011;11312;51.464;6.968;2023-05-10T02:28:36;6.00;;;2.72;;
22287;SDS011;11312;51.464;6.968;2023-05-10T02:31:03;4.95;;;2.03;;
22287;SDS011;11312;51.464;6.968;2023-05-10T02:33:31;4.95;;;2.13;;
22287;SDS011;11312;51.464;6.968;2023-05-10T02:35:57;2.95;;;1.50;;
22287;SDS011;11312;51.464;6.968;2023-05-10T02:38:24;3.63;;;1.75;;
22287;SDS011;11312;51.464;6.968;2023-05-10T02:40:51;3.67;;;1.77;;
22287;SDS011;11312;51.464;6.968;2023-05-10T02:43:17;2.38;;;1.55;;
22287;SDS011;11312;51.464;6.968;2023-05-10T02:45:43;4.53;;;2.17;;
22287;SDS011;11312;51.464;6.968;2023-05-10T02:48:12;3.15;;;1.77;;
22287;SDS011;11312;51.464;6.968;2023-05-10T02:50:38;3.03;;;1.60;;
22287;SDS011;11312;51.464;6.968;2023-05-10T02:53:11;3.40;;;1.90;;
22287;SDS011;11312;51.464;6.968;2023-05-10T02:55:44;6.55;;;2.35;;
22287;SDS011;11312;51.464;6.968;2023-05-10T02:58:12;2.85;;;1.58;;
22287;SDS011;11312;51.464;6.968;2023-05-10T03:00:38;4.95;;;1.92;;
22287;SDS011;11312;51.464;6.968;2023-05-10T03:03:03;5.68;;;2.45;;
22287;SDS011;11312;51.464;6.968;2023-05-10T03:05:29;4.07;;;1.80;;
22287;SDS011;11312;51.464;6.968;2023-05-10T03:07:54;2.95;;;1.42;;
22287;SDS011;11312;51.464;6.968;2023-05-10T03:10:22;6.22;;;2.38;;
22287;SDS011;11312;51.464;6.968;2023-05-10T03:18:26;4.10;;;2.15;;
22287;SDS011;11312;51.464;6.968;2023-05-10T03:20:57;4.15;;;1.85;;
22287;SDS011;11312;51.464;6.968;2023-05-10T03:23:34;4.75;;;1.88;;
22287;SDS011;11312;51.464;6.968;2023-05-10T03:26:04;6.10;;;2.78;;
22287;SDS011;11312;51.464;6.968;2023-05-10T03:28:30;5.63;;;1.98;;
22287;SDS011;11312;51.464;6.968;2023-05-10T03:30:58;4.70;;;1.90;;
22287;SDS011;11312;51.464;6.968;2023-05-10T03:33:24;3.30;;;1.75;;
22287;SDS011;11312;51.464;6.968;2023-05-10T03:35:50;5.40;;;2.00;;
22287;SDS011;11312;51.464;6.968;2023-05-10T03:38:16;6.82;;;2.53;;
22287;SDS011;11312;51.464;6.968;2023-05-10T03:40:41;5.38;;;1.92;;
22287;SDS011;11312;51.464;6.968;2023-05-10T03:43:07;6.57;;;3.03;;
22287;SDS011;11312;51.464;6.968;2023-05-10T03:45:33;7.07;;;2.15;;
22287;SDS011;11312;51.464;6.968;2023-05-10T03:47:58;4.03;;;2.03;;
22287;SDS011;11312;51.464;6.968;2023-05-10T03:50:24;3.17;;;1.73;;
22287;SDS011;11312;51.464;6.968;2023-05-10T03:52:50;3.28;;;1.65;;
22287;SDS011;11312;51.464;6.968;2023-05-10T03:55:16;9.68;;;3.20;;
22287;SDS011;11312;51.464;6.968;2023-05-10T03:57:41;7.03;;;3.10;;
22287;SDS011;11312;51.464;6.968;2023-05-10T04:00:08;7.28;;;2.45;;
22287;SDS011;11312;51.464;6.968;2023-05-10T04:02:34;4.47;;;2.00;;
22287;SDS011;11312;51.464;6.968;2023-05-10T04:05:00;5.00;;;2.10;;
22287;SDS011;11312;51.464;6.968;2023-05-10T04:07:26;6.28;;;2.28;;
22287;SDS011;11312;51.464;6.968;2023-05-10T04:09:51;2.63;;;1.50;;
22287;SDS011;11312;51.464;6.968;2023-05-10T04:12:17;7.60;;;3.00;;
22287;SDS011;11312;51.464;6.968;2023-05-10T04:14:43;10.52;;;3.33;;
22287;SDS011;11312;51.464;6.968;2023-05-10T04:17:08;6.63;;;2.63;;
22287;SDS011;11312;51.464;6.968;2023-05-10T04:19:35;6.63;;;2.72;;
22287;SDS011;11312;51.464;6.968;2023-05-10T04:22:02;5.63;;;2.35;;
22287;SDS011;11312;51.464;6.968;2023-05-10T04:24:28;6.13;;;2.30;;
22287;SDS011;11312;51.464;6.968;2023-05-10T04:26:54;6.20;;;2.58;;
22287;SDS011;11312;51.464;6.968;2023-05-10T04:29:20;5.47;;;2.42;;
22287;SDS011;11312;51.464;6.968;2023-05-10T04:31:45;5.32;;;1.88;;
22287;SDS011;11312;51.464;6.968;2023-05-10T04:34:11;9.00;;;3.20;;
22287;SDS011;11312;51.464;6.968;2023-05-10T04:36:37;6.80;;;2.67;;
22287;SDS011;11312;51.464;6.968;2023-05-10T04:39:03;5.85;;;2.42;;
22287;SDS011;11312;51.464;6.968;2023-05-10T04:41:29;3.03;;;1.75;;
22287;SDS011;11312;51.464;6.968;2023-05-10T04:43:55;6.00;;;2.45;;
22287;SDS011;11312;51.464;6.968;2023-05-10T04:46:20;5.47;;;2.55;;
22287;SDS011;11312;51.464;6.968;2023-05-10T04:48:46;6.75;;;2.90;;
22287;SDS011;11312;51.464;6.968;2023-05-10T04:51:12;10.98;;;3.42;;
22287;SDS011;11312;51.464;6.968;2023-05-10T04:53:38;5.03;;;1.92;;
22287;SDS011;11312;51.464;6.968;2023-05-10T04:56:03;7.35;;;2.97;;
22287;SDS011;11312;51.464;6.968;2023-05-10T04:58:29;5.22;;;2.22;;
22287;SDS011;11312;51.464;6.968;2023-05-10T05:00:55;6.43;;;2.72;;
22287;SDS011;11312;51.464;6.968;2023-05-10T05:03:21;6.95;;;2.72;;
22287;SDS011;11312;51.464;6.968;2023-05-10T05:05:47;6.65;;;2.65;;
22287;SDS011;11312;51.464;6.968;2023-05-10T05:08:13;7.63;;;2.67;;
22287;SDS011;11312;51.464;6.968;2023-05-10T05:10:38;7.43;;;2.75;;
22287;SDS011;11312;51.464;6.968;2023-05-10T05:13:04;9.85;;;3.08;;
22287;SDS011;11312;51.464;6.968;2023-05-10T05:15:30;5.85;;;3.08;;
22287;SDS011;11312;51.464;6.968;2023-05-10T05:17:56;8.52;;;3.25;;
22287;SDS011;11312;51.464;6.968;2023-05-10T05:20:22;6.95;;;2.90;;
22287;SDS011;11312;51.464;6.968;2023-05-10T05:22:47;8.80;;;3.33;;
22287;SDS011;11312;51.464;6.968;2023-05-10T05:25:13;9.10;;;3.70;;
22287;SDS011;11312;51.464;6.968;2023-05-10T05:27:40;8.63;;;2.75;;
22287;SDS011;11312;51.464;6.968;2023-05-10T05:30:05;7.65;;;3.25;;
22287;SDS011;11312;51.464;6.968;2023-05-10T05:32:32;8.15;;;2.45;;
22287;SDS011;11312;51.464;6.968;2023-05-10T05:34:57;7.32;;;2.85;;
22287;SDS011;11312;51.464;6.968;2023-05-10T05:37:23;6.80;;;2.70;;
22287;SDS011;11312;51.464;6.968;2023-05-10T05:39:49;8.32;;;3.75;;
22287;SDS011;11312;51.464;6.968;2023-05-10T05:42:15;6.13;;;3.25;;
22287;SDS011;11312;51.464;6.968;2023-05-10T05:44:42;7.53;;;2.90;;
22287;SDS011;11312;51.464;6.968;2023-05-10T05:47:08;6.43;;;2.70;;
22287;SDS011;11312;51.464;6.968;2023-05-10T05:49:34;12.05;;;4.18;;
22287;SDS011;11312;51.464;6.968;2023-05-10T05:52:00;6.57;;;2.50;;
22287;SDS011;11312;51.464;6.968;2023-05-10T05:54:29;8.50;;;3.03;;
22287;SDS011;11312;51.464;6.968;2023-05-10T05:56:56;10.23;;;3.15;;
22287;SDS011;11312;51.464;6.968;2023-05-10T05:59:22;6.72;;;2.65;;
22287;SDS011;11312;51.464;6.968;2023-05-10T06:01:49;5.38;;;2.50;;
22287;SDS011;11312;51.464;6.968;2023-05-10T06:04:14;6.32;;;2.72;;
22287;SDS011;11312;51.464;6.968;2023-05-10T06:06:41;8.48;;;3.30;;
22287;SDS011;11312;51.464;6.968;2023-05-10T06:09:07;7.93;;;3.58;;
22287;SDS011;11312;51.464;6.968;2023-05-10T06:11:33;9.38;;;3.60;;
22287;SDS011;11312;51.464;6.968;2023-05-10T06:13:59;7.72;;;3.17;;
22287;SDS011;11312;51.464;6.968;2023-05-10T06:16:25;11.32;;;3.58;;
22287;SDS011;11312;51.464;6.968;2023-05-10T06:18:51;7.22;;;3.55;;
22287;SDS011;11312;51.464;6.968;2023-05-10T06:21:17;7.63;;;3.15;;
22287;SDS011;11312;51.464;6.968;2023-05-10T06:23:42;9.07;;;3.90;;
22287;SDS011;11312;51.464;6.968;2023-05-10T06:26:08;5.63;;;2.30;;
22287;SDS011;11312;51.464;6.968;2023-05-10T06:28:34;12.52;;;4.53;;
22287;SDS011;11312;51.464;6.968;2023-05-10T06:31:02;7.65;;;2.78;;
22287;SDS011;11312;51.464;6.968;2023-05-10T06:33:28;9.82;;;3.13;;
22287;SDS011;11312;51.464;6.968;2023-05-10T06:35:54;18.33;;;4.05;;
22287;SDS011;11312;51.464;6.968;2023-05-10T06:38:20;7.68;;;3.15;;
22287;SDS011;11312;51.464;6.968;2023-05-10T06:40:45;8.93;;;3.50;;
22287;SDS011;11312;51.464;6.968;2023-05-10T06:43:11;16.30;;;4.05;;
22287;SDS011;11312;51.464;6.968;2023-05-10T06:45:37;13.02;;;5.10;;
22287;SDS011;11312;51.464;6.968;2023-05-10T06:48:02;10.60;;;3.53;;
22287;SDS011;11312;51.464;6.968;2023-05-10T06:50:28;8.50;;;3.58;;
22287;SDS011;11312;51.464;6.968;2023-05-10T06:52:54;12.73;;;4.80;;
22287;SDS011;11312;51.464;6.968;2023-05-10T06:55:20;9.65;;;3.92;;
22287;SDS011;11312;51.464;6.968;2023-05-10T06:57:46;10.88;;;2.75;;
22287;SDS011;11312;51.464;6.968;2023-05-10T07:00:12;10.93;;;4.15;;
22287;SDS011;11312;51.464;6.968;2023-05-10T07:02:39;11.05;;;4.15;;
22287;SDS011;11312;51.464;6.968;2023-05-10T07:05:04;8.95;;;4.28;;
22287;SDS011;11312;51.464;6.968;2023-05-10T07:07:30;7.38;;;3.03;;
22287;SDS011;11312;51.464;6.968;2023-05-10T07:09:56;6.85;;;3.05;;
22287;SDS011;11312;51.464;6.968;2023-05-10T07:12:22;8.82;;;3.13;;
22287;SDS011;11312;51.464;6.968;2023-05-10T07:14:48;15.02;;;3.58;;
22287;SDS011;11312;51.464;6.968;2023-05-10T07:17:14;11.82;;;4.03;;
22287;SDS011;11312;51.464;6.968;2023-05-10T07:19:40;11.05;;;3.92;;
22287;SDS011;11312;51.464;6.968;2023-05-10T07:22:06;13.93;;;4.45;;
22287;SDS011;11312;51.464;6.968;2023-05-10T07:24:32;7.63;;;2.85;;
22287;SDS011;11312;51.464;6.968;2023-05-10T07:26:58;8.90;;;3.45;;
22287;SDS011;11312;51.464;6.968;2023-05-10T07:29:24;12.57;;;4.13;;
22287;SDS011;11312;51.464;6.968;2023-05-10T07:31:49;6.82;;;2.33;;
22287;SDS011;11312;51.464;6.968;2023-05-10T07:34:15;18.02;;;4.25;;
22287;SDS011;11312;51.464;6.968;2023-05-10T07:36:41;10.57;;;4.50;;
22287;SDS011;11312;51.464;6.968;2023-05-10T07:39:06;8.55;;;2.63;;
22287;SDS011;11312;51.464;6.968;2023-05-10T07:41:32;10.25;;;4.35;;
22287;SDS011;11312;51.464;6.968;2023-05-10T07:43:58;16.60;;;3.55;;
22287;SDS011;11312;51.464;6.968;2023-05-10T07:46:23;10.38;;;4.60;;
22287;SDS011;11312;51.464;6.968;2023-05-10T07:48:49;8.50;;;3.92;;
22287;SDS011;11312;51.464;6.968;2023-05-10T07:51:14;13.25;;;4.07;;
22287;SDS011;11312;51.464;6.968;2023-05-10T07:53:40;9.57;;;3.70;;
22287;SDS011;11312;51.464;6.968;2023-05-10T07:56:25;6.03;;;2.60;;
22287;SDS011;11312;51.464;6.968;2023-05-10T07:58:55;7.22;;;2.65;;
22287;SDS011;11312;51.464;6.968;2023-05-10T08:01:21;5.60;;;2.50;;
22287;SDS011;11312;51.464;6.968;2023-05-10T08:03:47;8.98;;;3.17;;
22287;SDS011;11312;51.464;6.968;2023-05-10T08:06:14;6.72;;;2.63;;
22287;SDS011;11312;51.464;6.968;2023-05-10T08:08:40;9.00;;;2.88;;
22287;SDS011;11312;51.464;6.968;2023-05-10T08:11:06;6.20;;;2.30;;
22287;SDS011;11312;51.464;6.968;2023-05-10T08:13:32;8.02;;;2.63;;
22287;SDS011;11312;51.464;6.968;2023-05-10T08:15:58;7.70;;;3.00;;
22287;SDS011;11312;51.464;6.968;2023-05-10T08:18:24;9.23;;;3.05;;
22287;SDS011;11312;51.464;6.968;2023-05-10T08:20:49;6.60;;;2.70;;
22287;SDS011;11312;51.464;6.968;2023-05-10T08:23:15;9.10;;;3.47;;
22287;SDS011;11312;51.464;6.968;2023-05-10T08:25:41;8.73;;;3.05;;
22287;SDS011;11312;51.464;6.968;2023-05-10T08:28:06;4.80;;;2.03;;
22287;SDS011;11312;51.464;6.968;2023-05-10T08:30:32;6.82;;;2.03;;
22287;SDS011;11312;51.464;6.968;2023-05-10T08:32:58;5.88;;;2.67;;
22287;SDS011;11312;51.464;6.968;2023-05-10T08:35:23;5.05;;;2.05;;
22287;SDS011;11312;51.464;6.968;2023-05-10T08:37:50;5.28;;;2.00;;
22287;SDS011;11312;51.464;6.968;2023-05-10T08:40:16;1.77;;;1.30;;
22287;SDS011;11312;51.464;6.968;2023-05-10T08:42:48;4.85;;;2.28;;
22287;SDS011;11312;51.464;6.968;2023-05-10T08:45:21;5.18;;;2.42;;
22287;SDS011;11312;51.464;6.968;2023-05-10T08:47:49;5.70;;;2.67;;
22287;SDS011;11312;51.464;6.968;2023-05-10T08:50:16;5.57;;;2.60;;
22287;SDS011;11312;51.464;6.968;2023-05-10T08:52:44;6.15;;;2.58;;
22287;SDS011;11312;51.464;6.968;2023-05-10T08:55:12;5.57;;;2.13;;
22287;SDS011;11312;51.464;6.968;2023-05-10T08:57:38;6.60;;;2.70;;
22287;SDS011;11312;51.464;6.968;2023-05-10T09:00:04;7.35;;;3.13;;
22287;SDS011;11312;51.464;6.968;2023-05-10T09:02:30;9.13;;;2.75;;
22287;SDS011;11312;51.464;6.968;2023-05-10T09:04:56;7.78;;;3.38;;
22287;SDS011;11312;51.464;6.968;2023-05-10T09:07:22;9.20;;;3.30;;
22287;SDS011;11312;51.464;6.968;2023-05-10T09:09:47;9.05;;;2.72;;
22287;SDS011;11312;51.464;6.968;2023-05-10T09:12:14;7.57;;;3.28;;
22287;SDS011;11312;51.464;6.968;2023-05-10T09:14:41;8.30;;;3.70;;
22287;SDS011;11312;51.464;6.968;2023-05-10T09:17:09;5.05;;;2.22;;
22287;SDS011;11312;51.464;6.968;2023-05-10T09:19:35;7.93;;;2.97;;
22287;SDS011;11312;51.464;6.968;2023-05-10T09:22:00;6.72;;;2.80;;
22287;SDS011;11312;51.464;6.968;2023-05-10T09:24:28;6.65;;;2.83;;
22287;SDS011;11312;51.464;6.968;2023-05-10T09:26:56;10.80;;;3.88;;
22287;SDS011;11312;51.464;6.968;2023-05-10T09:29:22;8.52;;;3.20;;
22287;SDS011;11312;51.464;6.968;2023-05-10T09:31:48;9.27;;;2.75;;
22287;SDS011;11312;51.464;6.968;2023-05-10T09:34:20;20.83;;;3.88;;
22287;SDS011;11312;51.464;6.968;2023-05-10T09:36:56;6.00;;;2.83;;
22287;SDS011;11312;51.464;6.968;2023-05-10T09:42:04;9.00;;;3.15;;
22287;SDS011;11312;51.464;6.968;2023-05-10T09:44:34;11.68;;;3.80;;
22287;SDS011;11312;51.464;6.968;2023-05-10T09:47:03;9.25;;;3.60;;
22287;SDS011;11312;51.464;6.968;2023-05-10T09:49:29;5.70;;;2.35;;
22287;SDS011;11312;51.464;6.968;2023-05-10T09:54:27;4.57;;;2.28;;
22287;SDS011;11312;51.464;6.968;2023-05-10T09:56:53;8.10;;;3.60;;
22287;SDS011;11312;51.464;6.968;2023-05-10T09:59:18;6.82;;;2.92;;
22287;SDS011;11312;51.464;6.968;2023-05-10T10:01:49;4.75;;;2.08;;
22287;SDS011;11312;51.464;6.968;2023-05-10T10:04:15;5.00;;;2.55;;
22287;SDS011;11312;51.464;6.968;2023-05-10T10:06:41;3.47;;;1.80;;
22287;SDS011;11312;51.464;6.968;2023-05-10T10:09:07;7.40;;;3.33;;
22287;SDS011;11312;51.464;6.968;2023-05-10T10:11:36;5.13;;;2.42;;
22287;SDS011;11312;51.464;6.968;2023-05-10T10:14:03;6.00;;;2.40;;
22287;SDS011;11312;51.464;6.968;2023-05-10T10:16:30;3.80;;;1.88;;
22287;SDS011;11312;51.464;6.968;2023-05-10T10:18:56;6.60;;;2.35;;
22287;SDS011;11312;51.464;6.968;2023-05-10T10:21:23;4.72;;;1.95;;
22287;SDS011;11312;51.464;6.968;2023-05-10T10:23:49;6.53;;;2.75;;
22287;SDS011;11312;51.464;6.968;2023-05-10T10:26:15;5.82;;;2.17;;
22287;SDS011;11312;51.464;6.968;2023-05-10T10:28:56;6.03;;;2.15;;
22287;SDS011;11312;51.464;6.968;2023-05-10T10:31:38;5.40;;;2.50;;
22287;SDS011;11312;51.464;6.968;2023-05-10T10:34:09;5.40;;;2.17;;
22287;SDS011;11312;51.464;6.968;2023-05-10T10:36:56;7.40;;;2.42;;
22287;SDS011;11312;51.464;6.968;2023-05-10T10:39:22;5.82;;;2.03;;
22287;SDS011;11312;51.464;6.968;2023-05-10T10:47:05;7.32;;;2.83;;
22287;SDS011;11312;51.464;6.968;2023-05-10T10:49:38;4.30;;;1.83;;
22287;SDS011;11312;51.464;6.968;2023-05-10T11:02:44;7.15;;;2.72;;
22287;SDS011;11312;51.464;6.968;2023-05-10T11:08:00;13.55;;;3.08;;
22287;SDS011;11312;51.464;6.968;2023-05-10T11:10:31;4.55;;;2.13;;
22287;SDS011;11312;51.464;6.968;2023-05-10T11:13:04;3.80;;;1.73;;
22287;SDS011;11312;51.464;6.968;2023-05-10T11:15:32;2.55;;;1.60;;
22287;SDS011;11312;51.464;6.968;2023-05-10T11:17:59;5.68;;;2.22;;
22287;SDS011;11312;51.464;6.968;2023-05-10T11:20:41;4.03;;;1.95;;
22287;SDS011;11312;51.464;6.968;2023-05-10T11:23:13;5.20;;;2.55;;
22287;SDS011;11312;51.464;6.968;2023-05-10T11:25:41;3.60;;;1.70;;
22287;SDS011;11312;51.464;6.968;2023-05-10T11:28:08;6.05;;;2.13;;
22287;SDS011;11312;51.464;6.968;2023-05-10T11:30:35;10.43;;;3.63;;
22287;SDS011;11312;51.464;6.968;2023-05-10T11:33:02;8.43;;;2.13;;
22287;SDS011;11312;51.464;6.968;2023-05-10T11:35:27;15.93;;;4.05;;
22287;SDS011;11312;51.464;6.968;2023-05-10T11:37:53;2.80;;;1.67;;
22287;SDS011;11312;51.464;6.968;2023-05-10T11:40:20;4.95;;;2.00;;
22287;SDS011;11312;51.464;6.968;2023-05-10T11:42:50;5.90;;;2.42;;
22287;SDS011;11312;51.464;6.968;2023-05-10T11:45:16;5.43;;;2.22;;
22287;SDS011;11312;51.464;6.968;2023-05-10T11:47:42;7.75;;;2.90;;
22287;SDS011;11312;51.464;6.968;2023-05-10T11:50:09;4.32;;;1.92;;
22287;SDS011;11312;51.464;6.968;2023-05-10T11:52:36;7.63;;;3.15;;
22287;SDS011;11312;51.464;6.968;2023-05-10T11:55:02;5.05;;;2.20;;
22287;SDS011;11312;51.464;6.968;2023-05-10T11:57:28;5.75;;;1.95;;
22287;SDS011;11312;51.464;6.968;2023-05-10T11:59:56;3.70;;;1.63;;
22287;SDS011;11312;51.464;6.968;2023-05-10T12:02:21;8.00;;;2.47;;
22287;SDS011;11312;51.464;6.968;2023-05-10T12:04:47;3.88;;;1.92;;
22287;SDS011;11312;51.464;6.968;2023-05-10T12:07:14;6.47;;;2.50;;
22287;SDS011;11312;51.464;6.968;2023-05-10T12:09:43;2.85;;;1.42;;
22287;SDS011;11312;51.464;6.968;2023-05-10T12:12:10;3.33;;;1.60;;
22287;SDS011;11312;51.464;6.968;2023-05-10T12:14:40;3.58;;;1.77;;
22287;SDS011;11312;51.464;6.968;2023-05-10T12:17:06;3.75;;;1.58;;
22287;SDS011;11312;51.464;6.968;2023-05-10T12:19:39;5.80;;;2.17;;
22287;SDS011;11312;51.464;6.968;2023-05-10T12:22:06;4.38;;;1.40;;
22287;SDS011;11312;51.464;6.968;2023-05-10T12:24:34;3.05;;;1.35;;
22287;SDS011;11312;51.464;6.968;2023-05-10T12:27:04;2.13;;;1.42;;
22287;SDS011;11312;51.464;6.968;2023-05-10T12:29:30;7.45;;;1.63;;
22287;SDS011;11312;51.464;6.968;2023-05-10T12:31:59;2.42;;;1.40;;
22287;SDS011;11312;51.464;6.968;2023-05-10T12:34:32;2.08;;;1.23;;
22287;SDS011;11312;51.464;6.968;2023-05-10T12:37:00;2.53;;;1.40;;
22287;SDS011;11312;51.464;6.968;2023-05-10T12:39:26;0.90;;;0.90;;
22287;SDS011;11312;51.464;6.968;2023-05-10T12:42:06;1.98;;;1.30;;
22287;SDS011;11312;51.464;6.968;2023-05-10T12:44:32;7.13;;;2.35;;
22287;SDS011;11312;51.464;6.968;2023-05-10T12:46:57;2.83;;;1.52;;
22287;SDS011;11312;51.464;6.968;2023-05-10T12:49:23;1.98;;;1.15;;
22287;SDS011;11312;51.464;6.968;2023-05-10T12:51:48;1.38;;;1.00;;
22287;SDS011;11312;51.464;6.968;2023-05-10T12:54:14;0.90;;;0.90;;
22287;SDS011;11312;51.464;6.968;2023-05-10T12:56:40;1.73;;;1.20;;
22287;SDS011;11312;51.464;6.968;2023-05-10T12:59:07;3.65;;;1.60;;
22287;SDS011;11312;51.464;6.968;2023-05-10T13:01:33;2.50;;;1.30;;
22287;SDS011;11312;51.464;6.968;2023-05-10T13:03:58;3.00;;;1.63;;
22287;SDS011;11312;51.464;6.968;2023-05-10T13:06:25;2.42;;;1.40;;
22287;SDS011;11312;51.464;6.968;2023-05-10T13:08:50;1.95;;;1.17;;
22287;SDS011;11312;51.464;6.968;2023-05-10T13:11:16;1.20;;;1.08;;
22287;SDS011;11312;51.464;6.968;2023-05-10T13:13:44;0.98;;;0.95;;
22287;SDS011;11312;51.464;6.968;2023-05-10T13:16:10;3.53;;;1.55;;
22287;SDS011;11312;51.464;6.968;2023-05-10T13:18:36;1.02;;;1.00;;
22287;SDS011;11312;51.464;6.968;2023-05-10T13:21:01;0.80;;;0.80;;
22287;SDS011;11312;51.464;6.968;2023-05-10T13:23:28;1.90;;;1.05;;
22287;SDS011;11312;51.464;6.968;2023-05-10T13:25:54;1.10;;;0.88;;
22287;SDS011;11312;51.464;6.968;2023-05-10T13:28:20;0.70;;;0.70;;
22287;SDS011;11312;51.464;6.968;2023-05-10T13:30:45;2.72;;;1.40;;
22287;SDS011;11312;51.464;6.968;2023-05-10T13:33:11;0.75;;;0.70;;
22287;SDS011;11312;51.464;6.968;2023-05-10T13:35:37;3.30;;;1.27;;
22287;SDS011;11312;51.464;6.968;2023-05-10T13:38:02;3.55;;;1.58;;
22287;SDS011;11312;51.464;6.968;2023-05-10T13:40:28;0.80;;;0.80;;
22287;SDS011;11312;51.464;6.968;2023-05-10T13:42:54;1.45;;;0.93;;
22287;SDS011;11312;51.464;6.968;2023-05-10T13:45:19;1.10;;;0.85;;
22287;SDS011;11312;51.464;6.968;2023-05-10T13:47:45;0.82;;;0.82;;
22287;SDS011;11312;51.464;6.968;2023-05-10T13:50:11;1.73;;;1.08;;
22287;SDS011;11312;51.464;6.968;2023-05-10T13:52:37;1.17;;;0.90;;
22287;SDS011;11312;51.464;6.968;2023-05-10T13:55:02;1.83;;;1.15;;
22287;SDS011;11312;51.464;6.968;2023-05-10T13:57:28;0.65;;;0.65;;
22287;SDS011;11312;51.464;6.968;2023-05-10T13:59:55;1.00;;;0.90;;
22287;SDS011;11312;51.464;6.968;2023-05-10T14:02:22;1.05;;;0.90;;
22287;SDS011;11312;51.464;6.968;2023-05-10T14:04:47;0.90;;;0.70;;
22287;SDS011;11312;51.464;6.968;2023-05-10T14:07:13;1.55;;;1.00;;
22287;SDS011;11312;51.464;6.968;2023-05-10T14:09:39;0.60;;;0.60;;
22287;SDS011;11312;51.464;6.968;2023-05-10T14:12:04;1.38;;;0.88;;
22287;SDS011;11312;51.464;6.968;2023-05-10T14:14:30;0.68;;;0.68;;
22287;SDS011;11312;51.464;6.968;2023-05-10T14:16:55;0.60;;;0.60;;
22287;SDS011;11312;51.464;6.968;2023-05-10T14:19:21;1.85;;;0.90;;
22287;SDS011;11312;51.464;6.968;2023-05-10T14:21:46;0.70;;;0.70;;
22287;SDS011;11312;51.464;6.968;2023-05-10T14:24:12;0.60;;;0.60;;
22287;SDS011;11312;51.464;6.968;2023-05-10T14:26:38;1.80;;;0.98;;
22287;SDS011;11312;51.464;6.968;2023-05-10T14:29:03;2.20;;;1.05;;
22287;SDS011;11312;51.464;6.968;2023-05-10T14:31:29;1.60;;;0.90;;
22287;SDS011;11312;51.464;6.968;2023-05-10T14:33:55;0.60;;;0.60;;
22287;SDS011;11312;51.464;6.968;2023-05-10T14:36:22;2.72;;;1.25;;
22287;SDS011;11312;51.464;6.968;2023-05-10T14:38:47;1.17;;;0.90;;
22287;SDS011;11312;51.464;6.968;2023-05-10T14:41:13;1.38;;;1.00;;
22287;SDS011;11312;51.464;6.968;2023-05-10T14:43:40;6.28;;;1.75;;
22287;SDS011;11312;51.464;6.968;2023-05-10T14:46:07;2.45;;;1.10;;
22287;SDS011;11312;51.464;6.968;2023-05-10T14:48:33;2.20;;;1.10;;
22287;SDS011;11312;51.464;6.968;2023-05-10T14:50:59;1.52;;;1.10;;
22287;SDS011;11312;51.464;6.968;2023-05-10T14:53:24;3.88;;;1.73;;
22287;SDS011;11312;51.464;6.968;2023-05-10T14:55:50;2.45;;;1.00;;
22287;SDS011;11312;51.464;6.968;2023-05-10T14:58:16;1.70;;;1.08;;
22287;SDS011;11312;51.464;6.968;2023-05-10T15:00:41;1.05;;;0.90;;
22287;SDS011;11312;51.464;6.968;2023-05-10T15:03:08;3.72;;;1.52;;
22287;SDS011;11312;51.464;6.968;2023-05-10T15:05:34;1.65;;;1.15;;
22287;SDS011;11312;51.464;6.968;2023-05-10T15:07:59;2.28;;;1.13;;
22287;SDS011;11312;51.464;6.968;2023-05-10T15:10:25;2.92;;;1.35;;
22287;SDS011;11312;51.464;6.968;2023-05-10T15:12:50;3.17;;;1.35;;
22287;SDS011;11312;51.464;6.968;2023-05-10T15:15:16;3.15;;;1.67;;
22287;SDS011;11312;51.464;6.968;2023-05-10T15:17:42;2.88;;;1.38;;
22287;SDS011;11312;51.464;6.968;2023-05-10T15:20:07;2.45;;;1.15;;
22287;SDS011;11312;51.464;6.968;2023-05-10T15:22:33;3.35;;;1.33;;
22287;SDS011;11312;51.464;6.968;2023-05-10T15:24:59;0.82;;;0.82;;
22287;SDS011;11312;51.464;6.968;2023-05-10T15:27:25;4.47;;;1.63;;
22287;SDS011;11312;51.464;6.968;2023-05-10T15:29:51;3.78;;;1.45;;